Jack northrop Field Hawthorne Municipal Airport Hawthorne US
ICAO: KHHR
IATA: HHR
Category: Medium
Scheduled Services: No

Elevation: 66 ft
TransAlt. 18000 ft.

Airport Communications:
SOCAL APP:124.3
ATIS:118.4
CTAF:121.1
SOCAL DEP:124.3
GND:125.1
HAWTHORNE RDO:122.2
TWR:121.1

KHHR Zoom In..

If you have problems with the map follow the link
https://www.worldairports.se/pages/airport.php?
ICAO=KHHR

Runways:

(A) RW 07 length 4956 ft width 100 ft
LOC 109.10 / hdg 73

(B) RW 25 length 4956 ft width 100 ft
LOC 109.10 / hdg 253

Location; KHHR
Day. 14 / Time. 20.53 Zulu
* Altimeter: 30.13
* Temperature: 19° c. 66.2°f.
* Wind from: 270° Speed 04 kn.
Dewpoint: -01° c.
Visibility: 10 Statute Miles.
Clouds: Clear (automated report).

KHHR 142053Z 27004KT 10SM CLR 19/M01 A3013 RMK AO2 SLP201 T01891011 56024


Wind From 270°
Speed 04 kn.

 
 
jpsmedia.com for Web Design worldairports.se 2018   terms of use